createdAt,value
2023-01-17T00:01:09.012Z,96813.97
2023-01-17T00:03:36.605Z,96802.66
2023-01-17T00:06:04.681Z,96834.25
2023-01-17T00:08:31.498Z,96823.63
2023-01-17T00:10:58.438Z,96832.91
2023-01-17T00:13:25.263Z,96812.47
2023-01-17T00:15:52.207Z,96833.81
2023-01-17T00:18:19.087Z,96837.75
2023-01-17T00:20:45.860Z,96843.72
2023-01-17T00:23:21.460Z,96840.22
2023-01-17T00:25:48.251Z,96839.78
2023-01-17T00:28:15.448Z,96840.38
2023-01-17T00:30:42.472Z,96849.09
2023-01-17T00:33:09.179Z,96841.13
2023-01-17T00:35:36.034Z,96853.84
2023-01-17T00:38:10.656Z,96867.47
2023-01-17T00:40:39.558Z,96868.72
2023-01-17T00:43:08.109Z,96862.75
2023-01-17T00:45:34.867Z,96860.31
2023-01-17T00:48:01.651Z,96857.16
2023-01-17T00:50:28.527Z,96862.50
2023-01-17T00:52:55.316Z,96860.38
2023-01-17T00:55:22.049Z,96861.63
2023-01-17T00:57:48.919Z,96864.97
2023-01-17T01:00:18.498Z,96860.69
2023-01-17T01:02:45.385Z,96863.91
2023-01-17T01:05:14.219Z,96851.28
2023-01-17T01:07:41.011Z,96862.50
2023-01-17T01:10:08.250Z,96859.56
2023-01-17T01:12:35.081Z,96860.31
2023-01-17T01:15:01.844Z,96859.47
2023-01-17T01:17:28.751Z,96858.34
2023-01-17T01:19:55.525Z,96849.88
2023-01-17T01:22:22.386Z,96854.88
2023-01-17T01:24:49.148Z,96851.16
2023-01-17T01:27:16.043Z,96847.97
2023-01-17T01:29:42.856Z,96852.97
2023-01-17T01:32:09.703Z,96857.88
2023-01-17T01:34:36.573Z,96855.56
2023-01-17T01:37:03.424Z,96858.28
2023-01-17T01:39:30.288Z,96852.53
2023-01-17T01:41:57.187Z,96863.34
2023-01-17T01:44:47.161Z,96861.06
2023-01-17T01:47:20.684Z,96861.31
2023-01-17T01:49:48.094Z,96845.88
2023-01-17T01:52:16.108Z,96857.88
2023-01-17T01:55:14.749Z,96851.94
2023-01-17T01:57:46.786Z,96850.56
2023-01-17T02:00:22.053Z,96850.78
2023-01-17T02:02:50.011Z,96851.84
2023-01-17T02:05:20.911Z,96847.75
2023-01-17T02:07:57.551Z,96845.78
2023-01-17T02:10:24.374Z,96840.16
2023-01-17T02:12:52.948Z,96844.00
2023-01-17T02:15:24.958Z,96834.84
2023-01-17T02:18:02.886Z,96827.44
2023-01-17T02:20:58.906Z,96829.25
2023-01-17T02:23:49.151Z,96825.78
2023-01-17T02:26:29.387Z,96833.38
2023-01-17T02:29:13.741Z,96833.19
2023-01-17T02:31:45.758Z,96830.78
2023-01-17T02:34:17.445Z,96826.66
2023-01-17T02:36:56.974Z,96834.34
2023-01-17T02:39:30.108Z,96847.28
2023-01-17T02:42:09.639Z,96851.75
2023-01-17T02:44:44.473Z,96848.84
2023-01-17T02:47:29.235Z,96843.56
2023-01-17T02:50:23.055Z,96845.97
2023-01-17T02:53:00.354Z,96846.09
2023-01-17T02:55:49.156Z,96846.84
2023-01-17T02:58:47.067Z,96844.56
2023-01-17T03:01:32.731Z,96842.69
2023-01-17T03:04:20.579Z,96844.88
2023-01-17T03:06:54.307Z,96845.69
2023-01-17T03:09:21.880Z,96853.09
2023-01-17T03:11:48.746Z,96853.69
2023-01-17T03:14:15.587Z,96855.75
2023-01-17T03:16:42.751Z,96844.97
2023-01-17T03:19:09.656Z,96851.94
2023-01-17T03:21:36.530Z,96853.16
2023-01-17T03:24:03.453Z,96858.06
2023-01-17T03:26:30.239Z,96860.34
2023-01-17T03:28:57.187Z,96850.28
2023-01-17T03:31:24.660Z,96860.06
2023-01-17T03:33:51.454Z,96865.69
2023-01-17T03:36:18.252Z,96869.94
2023-01-17T03:38:45.033Z,96865.34
2023-01-17T03:41:11.855Z,96874.03
2023-01-17T03:43:38.614Z,96879.13
2023-01-17T03:46:07.239Z,96880.34
2023-01-17T03:48:34.157Z,96875.00
2023-01-17T03:51:01.027Z,96882.16
2023-01-17T03:53:27.783Z,96886.31
2023-01-17T03:55:54.603Z,96886.41
2023-01-17T03:58:21.342Z,96887.94
2023-01-17T04:00:48.123Z,96890.53
2023-01-17T04:03:14.904Z,96887.66
2023-01-17T04:05:41.657Z,96900.31
2023-01-17T04:08:08.813Z,96894.34
2023-01-17T04:10:35.645Z,96895.72
2023-01-17T04:13:02.406Z,96897.63
2023-01-17T04:15:29.236Z,96893.00
2023-01-17T04:17:56.335Z,96894.84
2023-01-17T04:20:41.339Z,96901.84
2023-01-17T04:23:08.571Z,96899.84
2023-01-17T04:25:35.363Z,96899.72
2023-01-17T04:28:02.855Z,96893.28
2023-01-17T04:30:30.433Z,96898.66
2023-01-17T04:32:57.500Z,96897.72
2023-01-17T04:35:24.338Z,96889.50
2023-01-17T04:37:51.651Z,96889.50
2023-01-17T04:40:18.825Z,96887.00
2023-01-17T04:42:45.618Z,96881.22
2023-01-17T04:45:13.175Z,96886.53
2023-01-17T04:47:40.292Z,96890.84
2023-01-17T04:50:08.107Z,96874.81
2023-01-17T04:52:37.164Z,96891.13
2023-01-17T04:55:04.523Z,96890.78
2023-01-17T04:57:31.301Z,96896.53
2023-01-17T04:59:58.109Z,96896.22
2023-01-17T05:02:25.039Z,96900.53
2023-01-17T05:04:51.914Z,96903.53
2023-01-17T05:07:18.755Z,96912.16
2023-01-17T05:09:45.614Z,96912.84
2023-01-17T05:12:12.378Z,96914.66
2023-01-17T05:14:39.246Z,96916.88
2023-01-17T05:17:06.124Z,96918.09
2023-01-17T05:19:32.875Z,96914.75
2023-01-17T05:21:59.714Z,96913.22
2023-01-17T05:24:26.494Z,96919.09
2023-01-17T05:26:53.326Z,96917.34
2023-01-17T05:29:21.005Z,96922.34
2023-01-17T05:31:47.808Z,96922.09
2023-01-17T05:34:14.612Z,96931.34
2023-01-17T05:36:41.456Z,96921.00
2023-01-17T05:39:08.228Z,96931.88
2023-01-17T05:41:35.144Z,96926.69
2023-01-17T05:44:01.911Z,96937.69
2023-01-17T05:46:28.731Z,96938.94
2023-01-17T05:48:55.580Z,96950.63
2023-01-17T05:51:22.444Z,96949.59
2023-01-17T05:53:49.233Z,96949.59
2023-01-17T05:56:16.001Z,96955.16
2023-01-17T05:58:42.777Z,96958.09
2023-01-17T06:01:09.566Z,96963.09
2023-01-17T06:03:36.402Z,96961.16
2023-01-17T06:06:04.102Z,96970.44
2023-01-17T06:08:31.124Z,96967.19
2023-01-17T06:11:00.689Z,96966.34
2023-01-17T06:13:27.527Z,96980.13
2023-01-17T06:15:54.313Z,96977.19
2023-01-17T06:18:21.121Z,96975.75
2023-01-17T06:20:53.404Z,96974.78
2023-01-17T06:23:20.296Z,96980.66
2023-01-17T06:25:48.487Z,96995.53
2023-01-17T06:28:20.243Z,97000.69
2023-01-17T06:30:47.760Z,97010.66
2023-01-17T06:33:15.274Z,97007.97
2023-01-17T06:35:52.038Z,97001.75
2023-01-17T06:38:19.429Z,97009.91
2023-01-17T06:40:46.270Z,97007.78
2023-01-17T06:43:13.222Z,97018.06
2023-01-17T06:45:40.136Z,97022.84
2023-01-17T06:48:07.145Z,97014.72
2023-01-17T06:50:34.201Z,97026.69
2023-01-17T06:53:06.885Z,97032.34
2023-01-17T06:55:35.346Z,97040.28
2023-01-17T06:58:03.212Z,97041.53
2023-01-17T07:00:31.975Z,97040.03
2023-01-17T07:02:58.769Z,97040.41
2023-01-17T07:05:25.938Z,97045.97
2023-01-17T07:07:52.783Z,97043.44
2023-01-17T07:10:19.955Z,97058.41
2023-01-17T07:12:47.227Z,97049.41
2023-01-17T07:15:14.180Z,97058.72
2023-01-17T07:17:41.176Z,97071.66
2023-01-17T07:20:08.860Z,97074.91
2023-01-17T07:22:35.724Z,97084.78
2023-01-17T07:25:02.472Z,97075.09
2023-01-17T07:27:29.261Z,97084.25
2023-01-17T07:29:56.833Z,97087.34
2023-01-17T07:32:23.644Z,97082.94
2023-01-17T07:34:50.447Z,97083.81
2023-01-17T07:37:17.311Z,97089.97
2023-01-17T07:39:44.157Z,97092.06
2023-01-17T07:42:10.975Z,97098.00
2023-01-17T07:44:39.436Z,97103.38
2023-01-17T07:47:07.918Z,97097.91
2023-01-17T07:49:34.738Z,97095.16
2023-01-17T07:52:01.542Z,97095.03
2023-01-17T07:54:28.413Z,97087.97
2023-01-17T07:56:55.543Z,97093.78
2023-01-17T07:59:22.478Z,97101.47
2023-01-17T08:01:49.435Z,97092.84
2023-01-17T08:04:16.367Z,97095.91
2023-01-17T08:06:44.445Z,97102.81
2023-01-17T08:09:11.288Z,97101.28
2023-01-17T08:11:38.082Z,97110.59
2023-01-17T08:14:05.073Z,97104.66
2023-01-17T08:16:31.921Z,97113.56
2023-01-17T08:18:58.751Z,97097.63
2023-01-17T08:21:25.501Z,97103.28
2023-01-17T08:23:52.958Z,97093.09
2023-01-17T08:26:21.787Z,97096.66
2023-01-17T08:28:54.043Z,97097.13
2023-01-17T08:31:20.900Z,97094.25
2023-01-17T08:33:47.719Z,97095.97
2023-01-17T08:36:14.621Z,97094.31
2023-01-17T08:38:41.481Z,97083.06
2023-01-17T08:41:08.332Z,97084.50
2023-01-17T08:43:35.197Z,97085.00
2023-01-17T08:46:02.077Z,97087.78
2023-01-17T08:48:28.981Z,97086.88
2023-01-17T08:51:00.756Z,97083.41
2023-01-17T08:53:27.578Z,97093.19
2023-01-17T08:55:58.453Z,97092.88
2023-01-17T08:58:26.712Z,97100.41
2023-01-17T09:00:53.796Z,97108.63
2023-01-17T09:03:20.942Z,97110.63
2023-01-17T09:05:47.895Z,97124.09
2023-01-17T09:08:14.881Z,97132.81
2023-01-17T09:10:41.642Z,97136.66
2023-01-17T09:13:08.480Z,97150.56
2023-01-17T09:15:35.305Z,97147.41
2023-01-17T09:18:02.068Z,97153.03
2023-01-17T09:20:28.975Z,97145.44
2023-01-17T09:22:56.278Z,97153.97
2023-01-17T09:25:23.115Z,97160.41
2023-01-17T09:27:49.927Z,97167.94
2023-01-17T09:30:17.210Z,97165.50
2023-01-17T09:32:44.079Z,97170.88
2023-01-17T09:35:10.968Z,97166.91
2023-01-17T09:37:37.800Z,97168.66
2023-01-17T09:40:05.119Z,97155.34
2023-01-17T09:42:37.151Z,97154.47
2023-01-17T09:45:04.876Z,97155.63
2023-01-17T09:47:37.186Z,97153.66
2023-01-17T09:50:12.985Z,97142.09
2023-01-17T09:52:39.907Z,97148.38
2023-01-17T09:55:08.138Z,97133.75
2023-01-17T09:57:58.344Z,97124.28
2023-01-17T10:00:34.069Z,97131.66
2023-01-17T10:03:29.083Z,97126.81
2023-01-17T10:06:14.094Z,97129.13
2023-01-17T10:08:59.528Z,97125.53
2023-01-17T10:11:52.675Z,97113.63
2023-01-17T10:14:34.392Z,97098.84
2023-01-17T10:17:19.178Z,97087.41
2023-01-17T10:20:07.452Z,97077.59
2023-01-17T10:22:55.612Z,97071.97
2023-01-17T10:25:43.287Z,97071.66
2023-01-17T10:28:16.946Z,97065.06
2023-01-17T10:30:51.958Z,97069.97
2023-01-17T10:33:21.949Z,97065.69
2023-01-17T10:35:55.900Z,97069.50
2023-01-17T10:38:30.772Z,97065.19
2023-01-17T10:41:04.848Z,97053.44
2023-01-17T10:43:57.676Z,97047.28
2023-01-17T10:47:12.279Z,97037.97
2023-01-17T10:49:43.766Z,97038.28
2023-01-17T10:52:32.936Z,97032.75
2023-01-17T10:55:23.054Z,97029.84
2023-01-17T10:57:51.156Z,97011.16
2023-01-17T11:00:37.647Z,97017.13
2023-01-17T11:03:06.302Z,97019.75
2023-01-17T11:05:34.185Z,97012.25
2023-01-17T11:08:18.934Z,97009.78
2023-01-17T11:10:52.931Z,97019.13
2023-01-17T11:13:33.238Z,97006.25
2023-01-17T11:16:07.672Z,97004.88
2023-01-17T11:18:40.771Z,96996.75
2023-01-17T11:21:20.863Z,96996.69
2023-01-17T11:23:50.403Z,96988.69
2023-01-17T11:26:27.897Z,96991.78
2023-01-17T11:29:25.809Z,96985.03
2023-01-17T11:31:53.777Z,96988.41
2023-01-17T11:34:26.499Z,96978.75
2023-01-17T11:37:14.749Z,96979.97
2023-01-17T11:39:42.995Z,96987.03
2023-01-17T11:42:33.330Z,96974.91
2023-01-17T11:45:26.754Z,96979.16
2023-01-17T11:48:08.847Z,96987.13
2023-01-17T11:50:56.312Z,96982.38
2023-01-17T11:53:30.202Z,96981.41
2023-01-17T11:56:09.981Z,96982.94
2023-01-17T11:58:42.528Z,96987.84
2023-01-17T12:01:11.972Z,96982.63
2023-01-17T12:03:58.372Z,96976.00
2023-01-17T12:06:51.535Z,96964.53
2023-01-17T12:09:46.761Z,96969.25
2023-01-17T12:13:04.019Z,96960.34
2023-01-17T12:15:36.716Z,96967.34
2023-01-17T12:18:12.300Z,96969.78
2023-01-17T12:20:55.344Z,96960.88
2023-01-17T12:23:49.640Z,96950.13
2023-01-17T12:26:18.965Z,96946.13
2023-01-17T12:29:00.778Z,96942.56
2023-01-17T12:31:38.953Z,96934.56
2023-01-17T12:34:25.044Z,96915.25
2023-01-17T12:37:12.936Z,96908.63
2023-01-17T12:39:46.952Z,96896.34
2023-01-17T12:42:24.850Z,96894.97
2023-01-17T12:45:00.704Z,96888.66
2023-01-17T12:47:28.031Z,96880.50
2023-01-17T12:50:28.004Z,96888.34
2023-01-17T12:52:54.767Z,96894.75
2023-01-17T12:55:35.991Z,96892.59
2023-01-17T12:58:06.451Z,96901.19
2023-01-17T13:00:38.281Z,96903.47
2023-01-17T13:03:20.615Z,96896.84
2023-01-17T13:05:47.891Z,96912.16
2023-01-17T13:08:23.525Z,96901.44
2023-01-17T13:10:53.264Z,96898.06
2023-01-17T13:13:31.093Z,96894.38
2023-01-17T13:16:20.291Z,96889.16
2023-01-17T13:18:49.069Z,96885.47
2023-01-17T13:21:34.683Z,96889.16
2023-01-17T13:24:19.239Z,96887.31
2023-01-17T13:26:59.620Z,96892.06
2023-01-17T13:29:57.085Z,96892.41
2023-01-17T13:32:58.601Z,96881.97
2023-01-17T13:36:10.710Z,96873.38
2023-01-17T13:38:59.959Z,96872.63
2023-01-17T13:41:53.533Z,96872.19
2023-01-17T13:44:24.326Z,96866.22
2023-01-17T13:46:58.743Z,96865.44
2023-01-17T13:49:33.639Z,96875.88
2023-01-17T13:52:10.115Z,96885.09
2023-01-17T13:54:46.143Z,96884.34
2023-01-17T13:57:24.916Z,96879.88
2023-01-17T13:59:54.579Z,96882.81
2023-01-17T14:02:33.485Z,96883.44
2023-01-17T14:05:19.028Z,96878.88
2023-01-17T14:07:56.040Z,96869.09
2023-01-17T14:10:33.744Z,96864.50
2023-01-17T14:13:01.919Z,96860.38
2023-01-17T14:15:31.427Z,96844.28
2023-01-17T14:18:03.512Z,96839.75
2023-01-17T14:20:50.446Z,96832.97
2023-01-17T14:23:32.031Z,96829.94
2023-01-17T14:26:12.536Z,96822.78
2023-01-17T14:28:39.451Z,96808.97
2023-01-17T14:31:11.062Z,96802.91
2023-01-17T14:33:39.706Z,96788.97
2023-01-17T14:36:22.758Z,96785.16
2023-01-17T14:38:50.698Z,96778.00
2023-01-17T14:41:29.539Z,96783.84
2023-01-17T14:43:58.147Z,96790.13
2023-01-17T14:46:30.157Z,96790.44
2023-01-17T14:49:02.869Z,96788.16
2023-01-17T14:51:30.299Z,96789.44
2023-01-17T14:54:01.319Z,96789.13
2023-01-17T14:56:30.208Z,96781.63
2023-01-17T14:59:11.524Z,96778.88
2023-01-17T15:01:38.702Z,96761.75
2023-01-17T15:04:05.677Z,96764.66
2023-01-17T15:06:40.743Z,96760.22
2023-01-17T15:09:16.503Z,96762.03
2023-01-17T15:11:46.282Z,96753.81
2023-01-17T15:14:22.030Z,96747.72
2023-01-17T15:16:48.945Z,96754.78
2023-01-17T15:19:15.716Z,96754.00
2023-01-17T15:21:44.089Z,96749.28
2023-01-17T15:24:21.930Z,96748.53
2023-01-17T15:26:49.355Z,96742.13
2023-01-17T15:29:29.146Z,96749.50
2023-01-17T15:31:58.599Z,96752.84
2023-01-17T15:34:31.132Z,96755.47
2023-01-17T15:37:04.027Z,96754.25
2023-01-17T15:39:34.586Z,96761.44
2023-01-17T15:42:06.650Z,96758.06
2023-01-17T15:44:48.413Z,96749.03
2023-01-17T15:47:37.297Z,96753.06
2023-01-17T15:50:29.150Z,96756.28
2023-01-17T15:53:02.120Z,96752.59
2023-01-17T15:55:39.536Z,96751.09
2023-01-17T15:58:23.320Z,96755.84
2023-01-17T16:00:50.275Z,96766.38
2023-01-17T16:03:20.090Z,96763.00
2023-01-17T16:05:47.556Z,96771.91
2023-01-17T16:08:14.265Z,96765.19
2023-01-17T16:10:41.283Z,96763.22
2023-01-17T16:13:10.252Z,96756.47
2023-01-17T16:15:38.556Z,96754.31
2023-01-17T16:18:12.470Z,96745.31
2023-01-17T16:21:35.104Z,96760.78
2023-01-17T16:24:02.531Z,96765.09
2023-01-17T16:26:29.484Z,96760.53
2023-01-17T16:28:56.658Z,96756.09
2023-01-17T16:31:23.679Z,96765.75
2023-01-17T16:33:51.154Z,96755.94
2023-01-17T16:36:18.705Z,96763.00
2023-01-17T16:38:45.832Z,96763.63
2023-01-17T16:41:13.035Z,96759.09
2023-01-17T16:43:39.878Z,96755.69
2023-01-17T16:46:07.530Z,96765.81
2023-01-17T16:48:34.277Z,96767.50
2023-01-17T16:51:06.077Z,96772.84
2023-01-17T16:53:33.057Z,96773.03
2023-01-17T16:56:08.368Z,96762.94
2023-01-17T16:58:35.146Z,96763.69
2023-01-17T17:01:02.961Z,96764.78
2023-01-17T17:03:30.112Z,96776.72
2023-01-17T17:05:59.648Z,96776.72
2023-01-17T17:08:27.167Z,96775.19
2023-01-17T17:10:53.956Z,96774.72
2023-01-17T17:13:21.399Z,96777.34
2023-01-17T17:15:48.452Z,96774.31
2023-01-17T17:18:17.758Z,96773.38
2023-01-17T17:20:46.036Z,96776.31
2023-01-17T17:23:12.942Z,96779.38
2023-01-17T17:25:39.940Z,96771.72
2023-01-17T17:28:07.173Z,96775.53
2023-01-17T17:30:34.103Z,96774.47
2023-01-17T17:33:01.186Z,96776.16
2023-01-17T17:35:28.384Z,96773.38
2023-01-17T17:37:55.956Z,96763.63
2023-01-17T17:40:22.931Z,96755.69
2023-01-17T17:42:49.739Z,96750.91
2023-01-17T17:45:17.119Z,96746.66
2023-01-17T17:47:44.359Z,96741.91
2023-01-17T17:50:11.891Z,96739.94
2023-01-17T17:52:39.119Z,96747.09
2023-01-17T17:55:06.498Z,96748.94
2023-01-17T17:57:33.247Z,96738.72
2023-01-17T18:00:00.379Z,96731.22
2023-01-17T18:02:27.443Z,96734.16
2023-01-17T18:04:55.234Z,96730.78
2023-01-17T18:07:22.488Z,96718.53
2023-01-17T18:09:49.321Z,96723.00
2023-01-17T18:12:16.243Z,96714.72
2023-01-17T18:14:44.091Z,96708.78
2023-01-17T18:17:11.545Z,96708.63
2023-01-17T18:19:38.806Z,96704.69
2023-01-17T18:22:06.189Z,96705.78
2023-01-17T18:24:33.466Z,96712.34
2023-01-17T18:27:00.963Z,96713.00
2023-01-17T18:29:29.583Z,96722.19
2023-01-17T18:31:57.287Z,96727.69
2023-01-17T18:34:28.227Z,96734.28
2023-01-17T18:36:56.559Z,96727.41
2023-01-17T18:39:29.295Z,96718.84
2023-01-17T18:41:57.011Z,96715.97
2023-01-17T18:44:26.215Z,96699.75
2023-01-17T18:46:54.840Z,96703.75
2023-01-17T18:49:22.486Z,96697.03
2023-01-17T18:51:50.277Z,96692.28
2023-01-17T18:54:21.281Z,96689.69
2023-01-17T18:56:48.737Z,96693.97
2023-01-17T18:59:16.580Z,96690.00
2023-01-17T19:01:44.331Z,96688.78
2023-01-17T19:04:13.908Z,96681.75
2023-01-17T19:06:45.311Z,96683.41
2023-01-17T19:09:14.843Z,96681.44
2023-01-17T19:11:43.714Z,96682.06
2023-01-17T19:14:12.077Z,96686.50
2023-01-17T19:16:41.635Z,96681.44
2023-01-17T19:19:13.777Z,96673.97
2023-01-17T19:21:41.588Z,96664.63
2023-01-17T19:24:11.294Z,96652.09
2023-01-17T19:26:38.548Z,96652.84
2023-01-17T19:29:05.575Z,96635.88
2023-01-17T19:31:37.192Z,96638.00
2023-01-17T19:34:05.345Z,96640.31
2023-01-17T19:36:35.097Z,96634.66
2023-01-17T19:39:06.177Z,96644.16
2023-01-17T19:41:36.658Z,96643.06
2023-01-17T19:44:07.584Z,96639.72
2023-01-17T19:46:36.077Z,96647.19
2023-01-17T19:49:04.873Z,96645.38
2023-01-17T19:51:32.403Z,96635.72
2023-01-17T19:54:02.153Z,96634.31
2023-01-17T19:56:32.789Z,96637.88
2023-01-17T19:59:01.852Z,96640.94
2023-01-17T20:01:33.220Z,96640.16
2023-01-17T20:04:01.787Z,96638.63
2023-01-17T20:06:33.887Z,96624.88
2023-01-17T20:09:01.935Z,96640.78
2023-01-17T20:11:29.899Z,96638.00
2023-01-17T20:13:58.955Z,96636.91
2023-01-17T20:16:28.696Z,96643.53
2023-01-17T20:18:58.153Z,96635.72
2023-01-17T20:21:27.773Z,96627.81
2023-01-17T20:23:57.482Z,96624.88
2023-01-17T20:26:30.077Z,96621.53
2023-01-17T20:28:57.508Z,96619.69
2023-01-17T20:31:26.158Z,96611.88
2023-01-17T20:33:55.750Z,96606.69
2023-01-17T20:36:26.508Z,96608.06
2023-01-17T20:38:53.796Z,96609.47
2023-01-17T20:41:22.719Z,96609.00
2023-01-17T20:43:56.236Z,96603.81
2023-01-17T20:46:26.320Z,96611.31
2023-01-17T20:48:57.246Z,96613.13
2023-01-17T20:51:27.112Z,96616.06
2023-01-17T20:53:59.516Z,96618.97
2023-01-17T20:56:27.072Z,96616.69
2023-01-17T20:58:57.877Z,96612.25
2023-01-17T21:01:25.162Z,96612.25
2023-01-17T21:03:52.923Z,96613.19
2023-01-17T21:06:22.192Z,96610.91
2023-01-17T21:08:51.627Z,96613.81
2023-01-17T21:11:24.239Z,96623.13
2023-01-17T21:13:52.460Z,96622.69
2023-01-17T21:16:21.910Z,96627.88
2023-01-17T21:18:51.545Z,96618.56
2023-01-17T21:21:20.971Z,96619.19
2023-01-17T21:23:50.026Z,96608.66
2023-01-17T21:26:17.889Z,96620.56
2023-01-17T21:28:46.547Z,96619.34
2023-01-17T21:31:30.634Z,96605.94
2023-01-17T21:33:59.438Z,96605.63
2023-01-17T21:36:40.010Z,96604.09
2023-01-17T21:39:11.362Z,96594.31
2023-01-17T21:41:40.653Z,96595.28
2023-01-17T21:44:12.640Z,96589.47
2023-01-17T21:46:40.990Z,96586.88
2023-01-17T21:49:10.128Z,96588.59
2023-01-17T21:51:37.053Z,96586.75
2023-01-17T21:54:03.999Z,96583.72
2023-01-17T21:56:30.724Z,96582.78
2023-01-17T21:58:58.658Z,96577.94
2023-01-17T22:01:28.483Z,96570.47
2023-01-17T22:04:00.601Z,96574.56
2023-01-17T22:06:30.509Z,96577.78
2023-01-17T22:08:58.280Z,96579.31
2023-01-17T22:11:26.998Z,96583.44
2023-01-17T22:13:54.129Z,96583.44
2023-01-17T22:16:25.067Z,96588.94
2023-01-17T22:18:51.994Z,96594.16
2023-01-17T22:21:22.182Z,96591.56
2023-01-17T22:23:54.575Z,96609.28
2023-01-17T22:26:24.301Z,96610.81
2023-01-17T22:28:51.263Z,96609.16
2023-01-17T22:31:20.616Z,96608.53
2023-01-17T22:33:52.624Z,96613.56
2023-01-17T22:36:19.805Z,96613.91
2023-01-17T22:38:47.214Z,96612.34
2023-01-17T22:41:17.347Z,96616.66
2023-01-17T22:43:46.241Z,96611.16
2023-01-17T22:46:16.835Z,96610.22
2023-01-17T22:48:44.378Z,96609.47
2023-01-17T22:51:13.413Z,96607.97
2023-01-17T22:53:42.055Z,96598.50
2023-01-17T22:56:12.492Z,96591.47
2023-01-17T22:58:40.885Z,96585.97
2023-01-17T23:01:13.928Z,96585.53
2023-01-17T23:03:41.867Z,96579.88
2023-01-17T23:06:10.252Z,96584.78
2023-01-17T23:08:37.848Z,96578.38
2023-01-17T23:11:26.380Z,96571.81
2023-01-17T23:13:53.301Z,96564.00
2023-01-17T23:16:20.184Z,96571.66
2023-01-17T23:18:47.123Z,96564.94
2023-01-17T23:21:13.923Z,96562.94
2023-01-17T23:23:40.757Z,96562.19
2023-01-17T23:26:07.599Z,96569.06
2023-01-17T23:28:34.387Z,96579.78
2023-01-17T23:31:02.604Z,96578.22
2023-01-17T23:33:29.438Z,96575.81
2023-01-17T23:35:56.337Z,96570.63
2023-01-17T23:38:23.214Z,96571.38
2023-01-17T23:40:54.012Z,96575.06
2023-01-17T23:43:20.885Z,96573.50
2023-01-17T23:45:48.389Z,96562.69
2023-01-17T23:48:15.910Z,96570.63
2023-01-17T23:50:45.550Z,96567.75
2023-01-17T23:53:14.147Z,96572.16
2023-01-17T23:55:44.382Z,96565.75
2023-01-17T23:58:12.004Z,96563.00
